sensor_id;sensor_type;location;lat;lon;timestamp;P1;durP1;ratioP1;P2;durP2;ratioP2
41687;SDS011;27371;42.686;23.362;2022-12-18T00:01:59;8.27;;;5.75;;
41687;SDS011;27371;42.686;23.362;2022-12-18T00:04:25;7.95;;;5.93;;
41687;SDS011;27371;42.686;23.362;2022-12-18T00:06:51;7.93;;;5.50;;
41687;SDS011;27371;42.686;23.362;2022-12-18T00:09:18;8.15;;;5.43;;
41687;SDS011;27371;42.686;23.362;2022-12-18T00:11:44;7.40;;;5.40;;
41687;SDS011;27371;42.686;23.362;2022-12-18T00:14:11;9.18;;;5.97;;
41687;SDS011;27371;42.686;23.362;2022-12-18T00:16:37;7.68;;;6.28;;
41687;SDS011;27371;42.686;23.362;2022-12-18T00:19:03;9.55;;;6.50;;
41687;SDS011;27371;42.686;23.362;2022-12-18T00:21:30;9.00;;;6.13;;
41687;SDS011;27371;42.686;23.362;2022-12-18T00:23:56;9.52;;;6.82;;
41687;SDS011;27371;42.686;23.362;2022-12-18T00:26:24;7.97;;;6.00;;
41687;SDS011;27371;42.686;23.362;2022-12-18T00:29:01;7.43;;;6.10;;
41687;SDS011;27371;42.686;23.362;2022-12-18T00:31:32;10.85;;;7.63;;
41687;SDS011;27371;42.686;23.362;2022-12-18T00:33:58;9.00;;;6.68;;
41687;SDS011;27371;42.686;23.362;2022-12-18T00:36:27;8.82;;;6.82;;
41687;SDS011;27371;42.686;23.362;2022-12-18T00:38:57;9.18;;;6.25;;
41687;SDS011;27371;42.686;23.362;2022-12-18T00:41:24;8.45;;;6.63;;
41687;SDS011;27371;42.686;23.362;2022-12-18T00:44:10;9.77;;;6.57;;
41687;SDS011;27371;42.686;23.362;2022-12-18T00:46:38;8.30;;;6.38;;
41687;SDS011;27371;42.686;23.362;2022-12-18T00:49:03;8.13;;;6.25;;
41687;SDS011;27371;42.686;23.362;2022-12-18T00:51:29;8.13;;;6.07;;
41687;SDS011;27371;42.686;23.362;2022-12-18T00:53:54;9.70;;;6.47;;
41687;SDS011;27371;42.686;23.362;2022-12-18T00:56:20;10.13;;;6.47;;
41687;SDS011;27371;42.686;23.362;2022-12-18T00:58:46;9.27;;;6.43;;
41687;SDS011;27371;42.686;23.362;2022-12-18T01:03:46;9.05;;;6.18;;
41687;SDS011;27371;42.686;23.362;2022-12-18T01:06:13;8.82;;;5.65;;
41687;SDS011;27371;42.686;23.362;2022-12-18T01:08:39;7.15;;;5.88;;
41687;SDS011;27371;42.686;23.362;2022-12-18T01:11:11;7.78;;;6.05;;
41687;SDS011;27371;42.686;23.362;2022-12-18T01:13:41;10.13;;;6.75;;
41687;SDS011;27371;42.686;23.362;2022-12-18T01:16:07;8.88;;;7.18;;
41687;SDS011;27371;42.686;23.362;2022-12-18T01:18:34;7.97;;;6.07;;
41687;SDS011;27371;42.686;23.362;2022-12-18T01:21:00;9.50;;;6.80;;
41687;SDS011;27371;42.686;23.362;2022-12-18T01:23:25;10.02;;;6.97;;
41687;SDS011;27371;42.686;23.362;2022-12-18T01:25:52;8.95;;;6.53;;
41687;SDS011;27371;42.686;23.362;2022-12-18T01:28:17;11.85;;;6.60;;
41687;SDS011;27371;42.686;23.362;2022-12-18T01:30:43;7.72;;;6.38;;
41687;SDS011;27371;42.686;23.362;2022-12-18T01:33:08;10.52;;;6.95;;
41687;SDS011;27371;42.686;23.362;2022-12-18T01:35:39;11.60;;;7.30;;
41687;SDS011;27371;42.686;23.362;2022-12-18T01:38:05;10.40;;;7.15;;
41687;SDS011;27371;42.686;23.362;2022-12-18T01:40:30;10.45;;;7.63;;
41687;SDS011;27371;42.686;23.362;2022-12-18T01:42:56;13.68;;;8.02;;
41687;SDS011;27371;42.686;23.362;2022-12-18T01:45:23;9.82;;;7.50;;
41687;SDS011;27371;42.686;23.362;2022-12-18T01:47:52;9.57;;;7.38;;
41687;SDS011;27371;42.686;23.362;2022-12-18T01:52:51;10.55;;;7.80;;
41687;SDS011;27371;42.686;23.362;2022-12-18T01:55:20;10.60;;;7.50;;
41687;SDS011;27371;42.686;23.362;2022-12-18T01:57:51;10.32;;;7.15;;
41687;SDS011;27371;42.686;23.362;2022-12-18T02:00:19;14.88;;;7.10;;
41687;SDS011;27371;42.686;23.362;2022-12-18T02:02:47;13.02;;;7.53;;
41687;SDS011;27371;42.686;23.362;2022-12-18T02:05:15;11.60;;;7.35;;
41687;SDS011;27371;42.686;23.362;2022-12-18T02:15:54;10.98;;;7.55;;
41687;SDS011;27371;42.686;23.362;2022-12-18T02:18:28;8.93;;;6.95;;
41687;SDS011;27371;42.686;23.362;2022-12-18T02:29:18;9.85;;;6.90;;
41687;SDS011;27371;42.686;23.362;2022-12-18T02:31:51;8.30;;;6.15;;
41687;SDS011;27371;42.686;23.362;2022-12-18T02:34:19;9.93;;;6.45;;
41687;SDS011;27371;42.686;23.362;2022-12-18T02:36:48;8.77;;;6.50;;
41687;SDS011;27371;42.686;23.362;2022-12-18T02:39:18;10.25;;;6.93;;
41687;SDS011;27371;42.686;23.362;2022-12-18T02:41:47;9.70;;;6.00;;
41687;SDS011;27371;42.686;23.362;2022-12-18T02:44:13;7.53;;;5.68;;
41687;SDS011;27371;42.686;23.362;2022-12-18T02:46:40;10.77;;;6.93;;
41687;SDS011;27371;42.686;23.362;2022-12-18T02:49:14;7.45;;;5.95;;
41687;SDS011;27371;42.686;23.362;2022-12-18T02:52:01;10.70;;;7.30;;
41687;SDS011;27371;42.686;23.362;2022-12-18T02:54:49;11.15;;;6.85;;
41687;SDS011;27371;42.686;23.362;2022-12-18T03:02:54;10.13;;;7.18;;
41687;SDS011;27371;42.686;23.362;2022-12-18T03:05:38;9.05;;;6.68;;
41687;SDS011;27371;42.686;23.362;2022-12-18T03:08:14;10.55;;;7.45;;
41687;SDS011;27371;42.686;23.362;2022-12-18T03:10:49;9.25;;;6.68;;
41687;SDS011;27371;42.686;23.362;2022-12-18T03:13:34;10.05;;;6.80;;
41687;SDS011;27371;42.686;23.362;2022-12-18T03:16:03;10.80;;;7.45;;
41687;SDS011;27371;42.686;23.362;2022-12-18T03:18:43;11.45;;;7.32;;
41687;SDS011;27371;42.686;23.362;2022-12-18T03:21:13;8.98;;;6.90;;
41687;SDS011;27371;42.686;23.362;2022-12-18T03:23:43;8.68;;;6.38;;
41687;SDS011;27371;42.686;23.362;2022-12-18T03:26:13;10.18;;;7.13;;
41687;SDS011;27371;42.686;23.362;2022-12-18T03:28:46;9.23;;;6.95;;
41687;SDS011;27371;42.686;23.362;2022-12-18T03:31:16;9.20;;;6.38;;
41687;SDS011;27371;42.686;23.362;2022-12-18T03:33:55;9.05;;;6.72;;
41687;SDS011;27371;42.686;23.362;2022-12-18T03:36:24;11.85;;;6.75;;
41687;SDS011;27371;42.686;23.362;2022-12-18T03:38:50;9.13;;;6.78;;
41687;SDS011;27371;42.686;23.362;2022-12-18T03:41:18;9.20;;;6.95;;
41687;SDS011;27371;42.686;23.362;2022-12-18T03:49:14;9.95;;;6.82;;
41687;SDS011;27371;42.686;23.362;2022-12-18T03:51:54;11.10;;;7.88;;
41687;SDS011;27371;42.686;23.362;2022-12-18T03:54:32;9.82;;;6.55;;
41687;SDS011;27371;42.686;23.362;2022-12-18T03:57:02;9.15;;;5.97;;
41687;SDS011;27371;42.686;23.362;2022-12-18T03:59:36;9.38;;;6.63;;
41687;SDS011;27371;42.686;23.362;2022-12-18T04:02:04;9.35;;;6.35;;
41687;SDS011;27371;42.686;23.362;2022-12-18T04:04:33;9.63;;;6.47;;
41687;SDS011;27371;42.686;23.362;2022-12-18T04:07:00;12.32;;;7.43;;
41687;SDS011;27371;42.686;23.362;2022-12-18T04:09:27;10.43;;;7.53;;
41687;SDS011;27371;42.686;23.362;2022-12-18T04:11:55;11.45;;;7.57;;
41687;SDS011;27371;42.686;23.362;2022-12-18T04:14:20;8.95;;;6.80;;
41687;SDS011;27371;42.686;23.362;2022-12-18T04:16:45;10.23;;;7.75;;
41687;SDS011;27371;42.686;23.362;2022-12-18T04:19:11;12.80;;;7.45;;
41687;SDS011;27371;42.686;23.362;2022-12-18T04:21:36;13.60;;;7.88;;
41687;SDS011;27371;42.686;23.362;2022-12-18T04:24:02;11.35;;;7.53;;
41687;SDS011;27371;42.686;23.362;2022-12-18T04:26:27;11.68;;;7.70;;
41687;SDS011;27371;42.686;23.362;2022-12-18T04:28:53;12.30;;;8.30;;
41687;SDS011;27371;42.686;23.362;2022-12-18T04:31:19;14.05;;;8.35;;
41687;SDS011;27371;42.686;23.362;2022-12-18T04:33:44;10.90;;;8.02;;
41687;SDS011;27371;42.686;23.362;2022-12-18T04:36:10;11.68;;;8.43;;
41687;SDS011;27371;42.686;23.362;2022-12-18T04:38:37;11.88;;;7.90;;
41687;SDS011;27371;42.686;23.362;2022-12-18T04:41:03;13.48;;;8.43;;
41687;SDS011;27371;42.686;23.362;2022-12-18T04:43:28;12.48;;;8.00;;
41687;SDS011;27371;42.686;23.362;2022-12-18T04:46:00;14.07;;;8.18;;
41687;SDS011;27371;42.686;23.362;2022-12-18T04:48:26;14.77;;;9.15;;
41687;SDS011;27371;42.686;23.362;2022-12-18T04:50:55;12.35;;;8.57;;
41687;SDS011;27371;42.686;23.362;2022-12-18T04:53:20;13.20;;;9.63;;
41687;SDS011;27371;42.686;23.362;2022-12-18T04:55:46;13.93;;;10.38;;
41687;SDS011;27371;42.686;23.362;2022-12-18T04:58:11;13.93;;;10.30;;
41687;SDS011;27371;42.686;23.362;2022-12-18T05:00:37;12.88;;;9.40;;
41687;SDS011;27371;42.686;23.362;2022-12-18T05:03:02;14.60;;;9.82;;
41687;SDS011;27371;42.686;23.362;2022-12-18T05:05:28;15.23;;;10.13;;
41687;SDS011;27371;42.686;23.362;2022-12-18T05:07:53;15.13;;;9.65;;
41687;SDS011;27371;42.686;23.362;2022-12-18T05:10:19;14.00;;;9.85;;
41687;SDS011;27371;42.686;23.362;2022-12-18T05:12:44;13.35;;;10.60;;
41687;SDS011;27371;42.686;23.362;2022-12-18T05:15:26;13.93;;;9.90;;
41687;SDS011;27371;42.686;23.362;2022-12-18T05:17:55;19.17;;;10.82;;
41687;SDS011;27371;42.686;23.362;2022-12-18T05:20:22;16.95;;;11.07;;
41687;SDS011;27371;42.686;23.362;2022-12-18T05:22:47;17.98;;;10.85;;
41687;SDS011;27371;42.686;23.362;2022-12-18T05:25:13;14.85;;;10.52;;
41687;SDS011;27371;42.686;23.362;2022-12-18T05:27:38;16.42;;;11.68;;
41687;SDS011;27371;42.686;23.362;2022-12-18T05:30:04;15.70;;;11.32;;
41687;SDS011;27371;42.686;23.362;2022-12-18T05:32:30;16.23;;;10.80;;
41687;SDS011;27371;42.686;23.362;2022-12-18T05:34:55;17.55;;;10.27;;
41687;SDS011;27371;42.686;23.362;2022-12-18T05:37:22;16.35;;;10.70;;
41687;SDS011;27371;42.686;23.362;2022-12-18T05:39:47;18.73;;;11.32;;
41687;SDS011;27371;42.686;23.362;2022-12-18T05:42:13;16.30;;;11.10;;
41687;SDS011;27371;42.686;23.362;2022-12-18T05:44:38;15.80;;;10.50;;
41687;SDS011;27371;42.686;23.362;2022-12-18T05:47:04;16.35;;;11.07;;
41687;SDS011;27371;42.686;23.362;2022-12-18T05:49:29;16.95;;;11.73;;
41687;SDS011;27371;42.686;23.362;2022-12-18T05:51:54;15.85;;;10.85;;
41687;SDS011;27371;42.686;23.362;2022-12-18T05:54:20;20.13;;;12.15;;
41687;SDS011;27371;42.686;23.362;2022-12-18T05:56:46;16.90;;;11.57;;
41687;SDS011;27371;42.686;23.362;2022-12-18T05:59:12;20.73;;;12.50;;
41687;SDS011;27371;42.686;23.362;2022-12-18T06:01:37;19.92;;;12.32;;
41687;SDS011;27371;42.686;23.362;2022-12-18T06:04:03;17.25;;;10.90;;
41687;SDS011;27371;42.686;23.362;2022-12-18T06:06:29;16.67;;;12.07;;
41687;SDS011;27371;42.686;23.362;2022-12-18T06:08:55;16.55;;;11.95;;
41687;SDS011;27371;42.686;23.362;2022-12-18T06:11:22;17.50;;;12.48;;
41687;SDS011;27371;42.686;23.362;2022-12-18T06:13:49;19.23;;;12.27;;
41687;SDS011;27371;42.686;23.362;2022-12-18T06:16:16;23.30;;;11.98;;
41687;SDS011;27371;42.686;23.362;2022-12-18T06:18:42;17.15;;;11.88;;
41687;SDS011;27371;42.686;23.362;2022-12-18T06:21:07;17.27;;;12.13;;
41687;SDS011;27371;42.686;23.362;2022-12-18T06:23:33;18.15;;;11.60;;
41687;SDS011;27371;42.686;23.362;2022-12-18T06:26:03;19.95;;;11.93;;
41687;SDS011;27371;42.686;23.362;2022-12-18T06:28:35;16.95;;;11.48;;
41687;SDS011;27371;42.686;23.362;2022-12-18T06:31:02;19.92;;;12.73;;
41687;SDS011;27371;42.686;23.362;2022-12-18T06:33:28;19.27;;;12.38;;
41687;SDS011;27371;42.686;23.362;2022-12-18T06:35:58;16.95;;;11.43;;
41687;SDS011;27371;42.686;23.362;2022-12-18T06:38:26;19.38;;;12.43;;
41687;SDS011;27371;42.686;23.362;2022-12-18T06:40:51;15.73;;;11.00;;
41687;SDS011;27371;42.686;23.362;2022-12-18T06:43:17;18.92;;;12.88;;
41687;SDS011;27371;42.686;23.362;2022-12-18T06:45:42;17.55;;;11.73;;
41687;SDS011;27371;42.686;23.362;2022-12-18T06:48:07;19.17;;;12.10;;
41687;SDS011;27371;42.686;23.362;2022-12-18T06:50:33;18.13;;;11.80;;
41687;SDS011;27371;42.686;23.362;2022-12-18T06:52:59;16.92;;;11.60;;
41687;SDS011;27371;42.686;23.362;2022-12-18T06:55:24;19.25;;;11.48;;
41687;SDS011;27371;42.686;23.362;2022-12-18T06:57:50;18.42;;;10.65;;
41687;SDS011;27371;42.686;23.362;2022-12-18T07:00:16;19.92;;;11.82;;
41687;SDS011;27371;42.686;23.362;2022-12-18T07:02:42;16.83;;;11.35;;
41687;SDS011;27371;42.686;23.362;2022-12-18T07:05:07;15.82;;;10.65;;
41687;SDS011;27371;42.686;23.362;2022-12-18T07:07:34;16.15;;;11.18;;
41687;SDS011;27371;42.686;23.362;2022-12-18T07:10:00;16.08;;;10.70;;
41687;SDS011;27371;42.686;23.362;2022-12-18T07:12:28;16.95;;;10.65;;
41687;SDS011;27371;42.686;23.362;2022-12-18T07:14:54;15.48;;;11.73;;
41687;SDS011;27371;42.686;23.362;2022-12-18T07:17:19;15.68;;;10.90;;
41687;SDS011;27371;42.686;23.362;2022-12-18T07:19:45;17.67;;;11.38;;
41687;SDS011;27371;42.686;23.362;2022-12-18T07:22:10;21.77;;;12.57;;
41687;SDS011;27371;42.686;23.362;2022-12-18T07:24:36;17.52;;;12.38;;
41687;SDS011;27371;42.686;23.362;2022-12-18T07:27:01;20.48;;;12.85;;
41687;SDS011;27371;42.686;23.362;2022-12-18T07:29:27;19.15;;;12.70;;
41687;SDS011;27371;42.686;23.362;2022-12-18T07:31:52;20.08;;;12.77;;
41687;SDS011;27371;42.686;23.362;2022-12-18T07:34:18;20.95;;;13.15;;
41687;SDS011;27371;42.686;23.362;2022-12-18T07:36:44;19.33;;;12.60;;
41687;SDS011;27371;42.686;23.362;2022-12-18T07:39:10;21.58;;;13.55;;
41687;SDS011;27371;42.686;23.362;2022-12-18T07:41:36;20.90;;;14.23;;
41687;SDS011;27371;42.686;23.362;2022-12-18T07:44:01;22.10;;;15.05;;
41687;SDS011;27371;42.686;23.362;2022-12-18T07:46:27;24.58;;;13.70;;
41687;SDS011;27371;42.686;23.362;2022-12-18T07:48:52;19.20;;;13.25;;
41687;SDS011;27371;42.686;23.362;2022-12-18T07:51:18;21.85;;;13.73;;
41687;SDS011;27371;42.686;23.362;2022-12-18T07:53:44;21.13;;;13.48;;
41687;SDS011;27371;42.686;23.362;2022-12-18T07:56:10;21.08;;;14.52;;
41687;SDS011;27371;42.686;23.362;2022-12-18T07:58:37;23.42;;;15.02;;
41687;SDS011;27371;42.686;23.362;2022-12-18T08:01:05;23.02;;;14.48;;
41687;SDS011;27371;42.686;23.362;2022-12-18T08:03:35;21.63;;;14.63;;
41687;SDS011;27371;42.686;23.362;2022-12-18T08:06:02;19.85;;;14.07;;
41687;SDS011;27371;42.686;23.362;2022-12-18T08:08:29;21.10;;;14.77;;
41687;SDS011;27371;42.686;23.362;2022-12-18T08:10:55;22.17;;;14.73;;
41687;SDS011;27371;42.686;23.362;2022-12-18T08:13:21;24.35;;;15.50;;
41687;SDS011;27371;42.686;23.362;2022-12-18T08:15:54;25.80;;;15.88;;
41687;SDS011;27371;42.686;23.362;2022-12-18T08:18:31;23.15;;;15.70;;
41687;SDS011;27371;42.686;23.362;2022-12-18T08:21:08;22.27;;;14.93;;
41687;SDS011;27371;42.686;23.362;2022-12-18T08:23:35;23.20;;;15.57;;
41687;SDS011;27371;42.686;23.362;2022-12-18T08:26:01;21.25;;;15.27;;
41687;SDS011;27371;42.686;23.362;2022-12-18T08:28:26;25.00;;;15.05;;
41687;SDS011;27371;42.686;23.362;2022-12-18T08:30:52;21.73;;;15.43;;
41687;SDS011;27371;42.686;23.362;2022-12-18T08:33:17;27.33;;;16.80;;
41687;SDS011;27371;42.686;23.362;2022-12-18T08:35:43;23.50;;;14.82;;
41687;SDS011;27371;42.686;23.362;2022-12-18T08:38:08;22.20;;;14.60;;
41687;SDS011;27371;42.686;23.362;2022-12-18T08:40:34;21.65;;;14.85;;
41687;SDS011;27371;42.686;23.362;2022-12-18T08:42:59;22.05;;;14.05;;
41687;SDS011;27371;42.686;23.362;2022-12-18T08:45:43;24.77;;;15.23;;
41687;SDS011;27371;42.686;23.362;2022-12-18T08:48:09;23.60;;;15.15;;
41687;SDS011;27371;42.686;23.362;2022-12-18T08:50:34;23.15;;;15.32;;
41687;SDS011;27371;42.686;23.362;2022-12-18T08:53:00;22.38;;;15.13;;
41687;SDS011;27371;42.686;23.362;2022-12-18T08:55:25;23.08;;;14.50;;
41687;SDS011;27371;42.686;23.362;2022-12-18T08:57:51;20.13;;;13.90;;
41687;SDS011;27371;42.686;23.362;2022-12-18T09:00:16;21.50;;;14.32;;
41687;SDS011;27371;42.686;23.362;2022-12-18T09:02:42;23.13;;;14.40;;
41687;SDS011;27371;42.686;23.362;2022-12-18T09:05:08;19.35;;;13.45;;
41687;SDS011;27371;42.686;23.362;2022-12-18T09:07:33;21.67;;;13.30;;
41687;SDS011;27371;42.686;23.362;2022-12-18T09:09:59;23.70;;;13.65;;
41687;SDS011;27371;42.686;23.362;2022-12-18T09:12:25;25.50;;;14.43;;
41687;SDS011;27371;42.686;23.362;2022-12-18T09:14:50;20.50;;;13.63;;
41687;SDS011;27371;42.686;23.362;2022-12-18T09:17:16;24.20;;;14.23;;
41687;SDS011;27371;42.686;23.362;2022-12-18T09:19:41;24.05;;;15.02;;
41687;SDS011;27371;42.686;23.362;2022-12-18T09:22:07;21.90;;;12.80;;
41687;SDS011;27371;42.686;23.362;2022-12-18T09:24:32;19.73;;;12.95;;
41687;SDS011;27371;42.686;23.362;2022-12-18T09:26:58;20.73;;;13.38;;
41687;SDS011;27371;42.686;23.362;2022-12-18T09:29:23;17.65;;;12.18;;
41687;SDS011;27371;42.686;23.362;2022-12-18T09:31:49;19.50;;;13.20;;
41687;SDS011;27371;42.686;23.362;2022-12-18T09:34:15;19.50;;;13.52;;
41687;SDS011;27371;42.686;23.362;2022-12-18T09:36:41;19.13;;;12.13;;
41687;SDS011;27371;42.686;23.362;2022-12-18T09:39:07;20.23;;;12.68;;
41687;SDS011;27371;42.686;23.362;2022-12-18T09:41:45;19.25;;;12.88;;
41687;SDS011;27371;42.686;23.362;2022-12-18T09:49:54;19.15;;;12.77;;
41687;SDS011;27371;42.686;23.362;2022-12-18T09:52:41;18.77;;;13.02;;
41687;SDS011;27371;42.686;23.362;2022-12-18T09:55:17;20.80;;;12.18;;
41687;SDS011;27371;42.686;23.362;2022-12-18T09:57:47;19.13;;;12.93;;
41687;SDS011;27371;42.686;23.362;2022-12-18T10:00:19;18.77;;;11.65;;
41687;SDS011;27371;42.686;23.362;2022-12-18T10:02:47;18.00;;;11.48;;
41687;SDS011;27371;42.686;23.362;2022-12-18T10:08:02;18.38;;;11.68;;
41687;SDS011;27371;42.686;23.362;2022-12-18T10:19:04;18.50;;;12.27;;
41687;SDS011;27371;42.686;23.362;2022-12-18T10:29:55;19.80;;;12.80;;
41687;SDS011;27371;42.686;23.362;2022-12-18T10:32:23;20.90;;;12.88;;
41687;SDS011;27371;42.686;23.362;2022-12-18T10:34:51;17.90;;;12.48;;
41687;SDS011;27371;42.686;23.362;2022-12-18T10:37:19;16.48;;;11.20;;
41687;SDS011;27371;42.686;23.362;2022-12-18T10:40:04;17.65;;;11.88;;
41687;SDS011;27371;42.686;23.362;2022-12-18T10:42:41;22.48;;;12.50;;
41687;SDS011;27371;42.686;23.362;2022-12-18T10:45:12;21.23;;;12.30;;
41687;SDS011;27371;42.686;23.362;2022-12-18T10:47:49;19.40;;;12.88;;
41687;SDS011;27371;42.686;23.362;2022-12-18T10:50:31;18.67;;;12.35;;
41687;SDS011;27371;42.686;23.362;2022-12-18T10:52:59;23.45;;;13.02;;
41687;SDS011;27371;42.686;23.362;2022-12-18T10:55:29;21.83;;;14.27;;
41687;SDS011;27371;42.686;23.362;2022-12-18T10:58:12;19.52;;;12.88;;
41687;SDS011;27371;42.686;23.362;2022-12-18T11:00:51;19.75;;;13.23;;
41687;SDS011;27371;42.686;23.362;2022-12-18T11:03:36;24.45;;;13.35;;
41687;SDS011;27371;42.686;23.362;2022-12-18T11:08:37;21.15;;;13.18;;
41687;SDS011;27371;42.686;23.362;2022-12-18T11:11:04;21.52;;;13.77;;
41687;SDS011;27371;42.686;23.362;2022-12-18T11:13:41;25.50;;;14.88;;
41687;SDS011;27371;42.686;23.362;2022-12-18T11:16:19;25.45;;;12.55;;
41687;SDS011;27371;42.686;23.362;2022-12-18T11:18:45;18.42;;;12.23;;
41687;SDS011;27371;42.686;23.362;2022-12-18T11:21:11;27.75;;;13.70;;
41687;SDS011;27371;42.686;23.362;2022-12-18T11:23:45;16.13;;;11.40;;
41687;SDS011;27371;42.686;23.362;2022-12-18T11:26:14;20.00;;;12.70;;
41687;SDS011;27371;42.686;23.362;2022-12-18T11:28:46;20.48;;;12.43;;
41687;SDS011;27371;42.686;23.362;2022-12-18T11:31:47;19.63;;;13.23;;
41687;SDS011;27371;42.686;23.362;2022-12-18T11:34:49;23.95;;;12.90;;
41687;SDS011;27371;42.686;23.362;2022-12-18T11:36:57;21.80;;;14.07;;
41687;SDS011;27371;42.686;23.362;2022-12-18T11:42:04;19.55;;;12.68;;
41687;SDS011;27371;42.686;23.362;2022-12-18T11:47:13;21.77;;;13.20;;
41687;SDS011;27371;42.686;23.362;2022-12-18T11:50:00;21.38;;;13.35;;
41687;SDS011;27371;42.686;23.362;2022-12-18T11:52:29;20.33;;;12.45;;
41687;SDS011;27371;42.686;23.362;2022-12-18T11:54:59;24.17;;;14.80;;
41687;SDS011;27371;42.686;23.362;2022-12-18T12:08:40;18.38;;;11.63;;
41687;SDS011;27371;42.686;23.362;2022-12-18T12:14:35;23.58;;;13.73;;
41687;SDS011;27371;42.686;23.362;2022-12-18T12:25:37;21.13;;;13.88;;
41687;SDS011;27371;42.686;23.362;2022-12-18T12:33:36;25.55;;;15.55;;
41687;SDS011;27371;42.686;23.362;2022-12-18T12:39:06;22.17;;;12.85;;
41687;SDS011;27371;42.686;23.362;2022-12-18T12:41:36;19.65;;;11.95;;
41687;SDS011;27371;42.686;23.362;2022-12-18T12:44:23;18.17;;;12.52;;
41687;SDS011;27371;42.686;23.362;2022-12-18T12:46:55;20.48;;;13.07;;
41687;SDS011;27371;42.686;23.362;2022-12-18T12:49:25;19.80;;;13.45;;
41687;SDS011;27371;42.686;23.362;2022-12-18T12:51:58;19.33;;;12.85;;
41687;SDS011;27371;42.686;23.362;2022-12-18T12:54:38;21.25;;;12.38;;
41687;SDS011;27371;42.686;23.362;2022-12-18T12:59:37;23.67;;;14.40;;
41687;SDS011;27371;42.686;23.362;2022-12-18T13:02:29;21.30;;;13.98;;
41687;SDS011;27371;42.686;23.362;2022-12-18T13:05:04;23.40;;;14.25;;
41687;SDS011;27371;42.686;23.362;2022-12-18T13:18:25;20.55;;;12.57;;
41687;SDS011;27371;42.686;23.362;2022-12-18T13:23:26;19.35;;;12.60;;
41687;SDS011;27371;42.686;23.362;2022-12-18T13:25:53;21.48;;;13.73;;
41687;SDS011;27371;42.686;23.362;2022-12-18T13:29:08;21.85;;;12.73;;
41687;SDS011;27371;42.686;23.362;2022-12-18T13:31:12;23.75;;;13.98;;
41687;SDS011;27371;42.686;23.362;2022-12-18T13:33:45;20.45;;;13.20;;
41687;SDS011;27371;42.686;23.362;2022-12-18T13:36:31;20.55;;;13.23;;
41687;SDS011;27371;42.686;23.362;2022-12-18T13:39:15;24.48;;;12.25;;
41687;SDS011;27371;42.686;23.362;2022-12-18T13:42:36;23.02;;;12.88;;
41687;SDS011;27371;42.686;23.362;2022-12-18T13:47:04;24.42;;;14.48;;
41687;SDS011;27371;42.686;23.362;2022-12-18T13:49:37;22.77;;;13.63;;
41687;SDS011;27371;42.686;23.362;2022-12-18T13:52:15;22.65;;;12.98;;
41687;SDS011;27371;42.686;23.362;2022-12-18T13:54:43;19.85;;;12.85;;
41687;SDS011;27371;42.686;23.362;2022-12-18T13:57:26;21.27;;;13.25;;
41687;SDS011;27371;42.686;23.362;2022-12-18T13:59:53;19.55;;;12.93;;
41687;SDS011;27371;42.686;23.362;2022-12-18T14:02:28;18.02;;;12.50;;
41687;SDS011;27371;42.686;23.362;2022-12-18T14:04:54;18.27;;;12.65;;
41687;SDS011;27371;42.686;23.362;2022-12-18T14:07:24;22.05;;;13.63;;
41687;SDS011;27371;42.686;23.362;2022-12-18T14:09:57;21.25;;;14.02;;
41687;SDS011;27371;42.686;23.362;2022-12-18T14:12:32;18.73;;;12.52;;
41687;SDS011;27371;42.686;23.362;2022-12-18T14:15:31;22.77;;;14.02;;
41687;SDS011;27371;42.686;23.362;2022-12-18T14:18:02;18.70;;;12.02;;
41687;SDS011;27371;42.686;23.362;2022-12-18T14:20:41;20.92;;;12.35;;
41687;SDS011;27371;42.686;23.362;2022-12-18T14:26:24;22.95;;;12.90;;
41687;SDS011;27371;42.686;23.362;2022-12-18T14:28:54;21.33;;;12.43;;
41687;SDS011;27371;42.686;23.362;2022-12-18T14:31:27;19.83;;;12.05;;
41687;SDS011;27371;42.686;23.362;2022-12-18T14:33:54;18.55;;;12.05;;
41687;SDS011;27371;42.686;23.362;2022-12-18T14:36:22;20.08;;;12.75;;
41687;SDS011;27371;42.686;23.362;2022-12-18T14:38:57;19.73;;;11.75;;
41687;SDS011;27371;42.686;23.362;2022-12-18T14:41:24;22.80;;;12.32;;
41687;SDS011;27371;42.686;23.362;2022-12-18T14:43:51;18.50;;;11.80;;
41687;SDS011;27371;42.686;23.362;2022-12-18T14:48:57;16.80;;;10.88;;
41687;SDS011;27371;42.686;23.362;2022-12-18T14:51:28;21.67;;;11.98;;
41687;SDS011;27371;42.686;23.362;2022-12-18T14:54:01;16.98;;;11.07;;
41687;SDS011;27371;42.686;23.362;2022-12-18T14:56:35;17.10;;;10.73;;
41687;SDS011;27371;42.686;23.362;2022-12-18T14:59:16;19.70;;;11.35;;
41687;SDS011;27371;42.686;23.362;2022-12-18T15:09:34;19.20;;;11.50;;
41687;SDS011;27371;42.686;23.362;2022-12-18T15:12:00;17.50;;;11.75;;
41687;SDS011;27371;42.686;23.362;2022-12-18T15:16:54;18.65;;;10.93;;
41687;SDS011;27371;42.686;23.362;2022-12-18T15:19:21;18.35;;;10.00;;
41687;SDS011;27371;42.686;23.362;2022-12-18T15:21:51;17.42;;;10.85;;
41687;SDS011;27371;42.686;23.362;2022-12-18T15:24:18;17.67;;;10.43;;
41687;SDS011;27371;42.686;23.362;2022-12-18T15:26:48;14.43;;;9.35;;
41687;SDS011;27371;42.686;23.362;2022-12-18T15:29:21;18.52;;;10.85;;
41687;SDS011;27371;42.686;23.362;2022-12-18T15:32:04;19.10;;;11.27;;
41687;SDS011;27371;42.686;23.362;2022-12-18T15:34:31;19.50;;;11.45;;
41687;SDS011;27371;42.686;23.362;2022-12-18T15:36:58;15.88;;;10.88;;
41687;SDS011;27371;42.686;23.362;2022-12-18T15:39:24;19.20;;;11.55;;
41687;SDS011;27371;42.686;23.362;2022-12-18T15:41:50;18.20;;;12.13;;
41687;SDS011;27371;42.686;23.362;2022-12-18T15:44:34;25.60;;;13.43;;
41687;SDS011;27371;42.686;23.362;2022-12-18T15:47:00;16.85;;;11.40;;
41687;SDS011;27371;42.686;23.362;2022-12-18T15:49:26;21.40;;;12.30;;
41687;SDS011;27371;42.686;23.362;2022-12-18T15:51:52;18.70;;;11.88;;
41687;SDS011;27371;42.686;23.362;2022-12-18T15:54:19;18.30;;;12.10;;
41687;SDS011;27371;42.686;23.362;2022-12-18T15:57:04;20.15;;;12.32;;
41687;SDS011;27371;42.686;23.362;2022-12-18T15:59:48;19.08;;;11.93;;
41687;SDS011;27371;42.686;23.362;2022-12-18T16:02:16;21.27;;;12.27;;
41687;SDS011;27371;42.686;23.362;2022-12-18T16:04:43;18.25;;;11.45;;
41687;SDS011;27371;42.686;23.362;2022-12-18T16:07:10;17.23;;;11.80;;
41687;SDS011;27371;42.686;23.362;2022-12-18T16:09:36;20.45;;;11.93;;
41687;SDS011;27371;42.686;23.362;2022-12-18T16:12:02;19.95;;;11.65;;
41687;SDS011;27371;42.686;23.362;2022-12-18T16:14:29;20.20;;;12.93;;
41687;SDS011;27371;42.686;23.362;2022-12-18T16:16:59;19.13;;;12.07;;
41687;SDS011;27371;42.686;23.362;2022-12-18T16:19:27;26.25;;;15.10;;
41687;SDS011;27371;42.686;23.362;2022-12-18T16:21:54;22.73;;;13.57;;
41687;SDS011;27371;42.686;23.362;2022-12-18T16:24:22;19.02;;;12.05;;
41687;SDS011;27371;42.686;23.362;2022-12-18T16:26:50;20.90;;;12.75;;
41687;SDS011;27371;42.686;23.362;2022-12-18T16:29:16;20.35;;;13.50;;
41687;SDS011;27371;42.686;23.362;2022-12-18T16:31:43;29.85;;;13.10;;
41687;SDS011;27371;42.686;23.362;2022-12-18T16:36:57;21.13;;;12.70;;
41687;SDS011;27371;42.686;23.362;2022-12-18T16:39:24;22.40;;;13.18;;
41687;SDS011;27371;42.686;23.362;2022-12-18T16:41:50;21.60;;;13.73;;
41687;SDS011;27371;42.686;23.362;2022-12-18T16:44:16;21.50;;;12.95;;